Latest Weather Observations for Tibooburra Airport

IDN60801

Issued at 5:32 pm EST Wednesday 27 May 2015 (issued every 30 minutes, with the page automatically refreshed every 10 minutes)

About weather observations | Map of weather stations | Latest weather observations for NSW | Other Formats
Station Details ID: 046126 Name: TIBOOBURRA AIRPORT Lat: -29.44 Lon: 142.06 Height: 176.4 m
Data from the previous 72 hours. | See also: Recent months for locations in New South Wales
Date/Time
EST
Temp
°C
App
Temp
°C
Dew
Point
Rel
Hum
%
Delta-T
°C
Wind Press
QNH
hPa
Press
MSL
hPa
Rain
since 9 am
mm
Dir
 
Spd
km/h
Gust
km/h
Spd
kts
Gust
kts
27/05:30pm 21.6 - - - - SSW 17 20 9 11 1020.1 1019.9 0.0
27/05:00pm 23.5 - - - - WSW 9 11 5 6 1019.8 1019.6 0.0
27/04:30pm 23.7 - - - - WSW 9 15 5 8 1019.8 1019.6 0.0
27/04:00pm 23.9 - - - - W 7 13 4 7 1019.8 1019.6 0.0
27/03:30pm 24.1 - - - - WNW 13 19 7 10 1019.9 1019.7 0.0
27/03:00pm 24.5 - - - - WNW 11 20 6 11 1020.2 1020.0 0.0
27/02:30pm 25.3 - - - - WNW 4 7 2 4 1020.2 1020.0 0.0
27/02:00pm 24.8 - - - - ESE 6 11 3 6 1020.5 1020.3 0.0
27/01:30pm 23.5 - - - - SW 2 9 1 5 1021.1 1020.9 0.0
27/01:00pm 22.6 - - - - S 6 9 3 5 1021.6 1021.4 0.0
27/12:30pm 21.9 - - - - SSE 9 11 5 6 1022.3 1022.0 0.0
27/12:00pm 21.2 - - - - ESE 9 13 5 7 1022.7 1022.4 0.0
27/11:30am 20.3 - - - - ESE 9 13 5 7 1023.2 1022.9 0.0
27/11:00am 19.7 - - - - SE 9 11 5 6 1023.6 1023.3 0.0
27/10:30am 19.4 - - - - SSE 9 11 5 6 1023.8 1023.5 0.0
27/10:00am 19.2 - - - - E 7 11 4 6 1023.7 1023.4 0.0
27/09:30am 18.8 - - - - SE 9 11 5 6 1023.5 1023.2 0.0
27/09:00am 18.1 - - - - SSE 7 9 4 5 1023.2 1022.9 0.0
27/08:30am 17.5 - - - - SSE 7 9 4 5 1023.0 1022.7 0.0
27/08:00am 17.3 - - - - SE 7 9 4 5 1022.8 1022.5 0.0
27/07:30am 17.1 - - - - ESE 6 9 3 5 1022.4 1022.1 0.0
27/07:00am 17.5 - - - - N 15 19 8 10 1021.9 1021.7 0.0
27/06:30am 17.5 - - - - NNE 9 13 5 7 1021.7 1021.5 0.0
27/06:00am 17.2 - - - - NE 9 11 5 6 1021.4 1021.2 0.0
27/05:30am 17.3 - - - - NE 9 11 5 6 1021.2 1021.0 0.0
27/05:00am 17.5 - - - - NE 9 11 5 6 1021.2 1021.0 0.0
27/04:30am 17.9 - - - - NE 15 17 8 9 1021.3 1021.1 0.0
27/04:00am 18.1 - - - - NNE 13 17 7 9 1021.4 1021.2 0.0
27/03:30am 17.9 - - - - NNE 13 15 7 8 1021.6 1021.4 0.0
27/03:00am 17.6 - - - - ENE 13 15 7 8 1021.6 1021.4 0.0
27/02:30am 18.0 - - - - E 11 17 6 9 1021.9 1021.7 0.0
27/02:00am 18.2 - - - - ESE 7 11 4 6 1022.4 1022.1 0.0
27/01:30am 18.2 - - - - E 11 13 6 7 1022.5 1022.2 0.0
27/01:00am 18.7 - - - - ESE 13 17 7 9 1022.7 1022.4 0.0
27/12:30am 18.9 - - - - E 11 17 6 9 1023.3 1023.0 0.0
27/12:00am 18.8 - - - - E 11 15 6 8 1023.5 1023.2 0.0
 
Date/Time
EST
Temp
°C
App
Temp
°C
Dew
Point
Rel
Hum
%
Delta-T
°C
Wind Press
QNH
hPa
Press
MSL
hPa
Rain
since 9 am
mm
Dir
 
Spd
km/h
Gust
km/h
Spd
kts
Gust
kts
26/11:30pm 18.9 - - - - ESE 11 13 6 7 1023.6 1023.3 0.0
26/11:00pm 18.6 - - - - ESE 9 9 5 5 1023.8 1023.5 0.0
26/10:30pm 18.9 - - - - ESE 9 11 5 6 1023.9 1023.6 0.0
26/10:00pm 19.1 - - - - E 9 9 5 5 1023.8 1023.5 0.0
26/09:30pm 19.3 - - - - E 9 11 5 6 1023.9 1023.6 0.0
26/09:00pm 19.6 - - - - E 9 11 5 6 1023.8 1023.5 0.0
26/08:30pm 20.0 - - - - SE 11 13 6 7 1023.7 1023.4 0.0
26/08:00pm 20.2 - - - - SE 11 15 6 8 1023.8 1023.5 0.0
26/07:30pm 20.1 - - - - SSE 6 9 3 5 1023.6 1023.3 0.0
26/07:00pm 20.3 - - - - SE 9 11 5 6 1023.5 1023.2 0.0
26/06:30pm 20.6 - - - - S 11 13 6 7 1023.6 1023.3 0.0
26/06:00pm 21.1 - - - - SSW 11 13 6 7 1023.4 1023.1 0.0
26/05:30pm 21.5 - - - - SSW 9 13 5 7 1023.2 1022.9 0.0
26/05:00pm 21.7 - - - - SSW 13 17 7 9 1023.2 1022.9 0.0
26/04:30pm 21.8 - - - - SSW 13 15 7 8 1023.2 1022.9 0.0
26/04:00pm 22.1 - - - - SW 15 19 8 10 1023.0 1022.7 0.0
26/03:30pm 22.3 - - - - SW 17 20 9 11 1023.1 1022.8 0.0
26/03:00pm 22.9 - - - - SW 17 26 9 14 1023.1 1022.8 0.0
26/02:30pm 22.9 - - - - WSW 13 20 7 11 1023.3 1023.0 0.0
26/02:00pm 23.3 - - - - W 13 20 7 11 1023.4 1023.1 0.0
26/01:30pm 22.6 - - - - W 13 17 7 9 1024.3 1024.1 0.0
26/01:00pm 22.0 - - - - WNW 9 13 5 7 1024.6 1024.4 0.0
26/12:30pm 21.9 - - - - NW 17 24 9 13 1025.2 1025.0 0.0
26/12:00pm 22.1 - - - - NNW 17 26 9 14 1025.6 1025.4 0.0
26/11:30am 20.9 - - - - N 13 17 7 9 1026.0 1025.8 0.0
26/11:00am 20.2 - - - - N 15 20 8 11 1026.4 1026.2 0.0
26/10:30am 19.8 - - - - N 13 17 7 9 1026.7 1026.5 0.0
26/10:00am 19.5 - - - - NNE 17 20 9 11 1026.6 1026.4 0.0
26/09:30am 18.8 - - - - NNE 17 22 9 12 1026.4 1026.2 0.0
26/09:00am 17.8 - - - - NNE 17 22 9 12 1026.3 1026.1 0.0
26/08:30am 17.0 - - - - NNE 13 17 7 9 1026.3 1026.1 0.0
26/08:00am 16.4 - - - - NNE 13 17 7 9 1025.7 1025.5 0.0
26/07:30am 16.2 - - - - NNE 13 15 7 8 1025.7 1025.5 0.0
26/07:00am 16.3 - - - - NNE 13 15 7 8 1025.7 1025.5 0.0
26/06:30am 16.0 - - - - NNE 11 13 6 7 1025.4 1025.2 0.0
26/06:00am 15.8 - - - - NNE 9 11 5 6 1025.4 1025.2 0.0
26/05:30am 15.9 - - - - NNE 13 15 7 8 1025.1 1024.9 0.0
26/05:00am 15.9 - - - - NNE 13 15 7 8 1025.1 1024.9 0.0
26/04:30am 15.6 - - - - NE 11 13 6 7 1025.1 1024.9 0.0
26/04:00am 16.3 - - - - NE 13 15 7 8 1025.2 1025.0 0.0
26/03:30am 16.0 - - - - NE 11 13 6 7 1025.2 1025.0 0.0
26/03:00am 15.4 - - - - NE 9 11 5 6 1025.1 1024.9 0.0
26/02:30am 15.6 - - - - ENE 13 13 7 7 1025.1 1024.9 0.0
26/02:00am 15.7 - - - - ENE 11 11 6 6 1025.6 1025.4 0.0
26/01:30am 15.5 - - - - ENE 9 11 5 6 1025.9 1025.7 0.0
26/01:00am 15.7 - - - - ENE 11 13 6 7 1026.0 1025.8 0.0
26/12:30am 16.2 - - - - E 13 13 7 7 1026.2 1026.0 0.0
26/12:00am 16.5 - - - - SE 9 9 5 5 1026.5 1026.3 0.0
 
Date/Time
EST
Temp
°C
App
Temp
°C
Dew
Point
Rel
Hum
%
Delta-T
°C
Wind Press
QNH
hPa
Press
MSL
hPa
Rain
since 9 am
mm
Dir
 
Spd
km/h
Gust
km/h
Spd
kts
Gust
kts
25/11:30pm 16.3 - - - - SSE 6 7 3 4 1026.7 1026.5 0.0
25/11:00pm 16.2 - - - - S 7 7 4 4 1026.8 1026.6 0.0
25/10:30pm 16.7 - - - - SSE 7 9 4 5 1026.7 1026.5 0.0
25/10:00pm 16.9 - - - - S 7 7 4 4 1026.9 1026.7 0.0
25/09:30pm 17.5 - - - - SSE 7 9 4 5 1026.9 1026.7 0.0
25/09:00pm 18.1 - - - - SE 9 11 5 6 1026.8 1026.6 0.0
25/08:30pm 18.0 - - - - SE 9 11 5 6 1026.8 1026.6 0.0
25/08:00pm 18.4 - - - - SE 11 11 6 6 1026.8 1026.6 0.0
25/07:30pm 17.8 - - - - S 7 9 4 5 1026.5 1026.3 0.0
25/07:00pm 18.0 - - - - SSE 2 6 1 3 1026.2 1026.0 0.0
25/06:30pm 18.8 - - - - SE 9 11 5 6 1025.8 1025.6 0.0
25/06:00pm 19.4 - - - - ESE 9 11 5 6 1025.4 1025.2 0.0
25/05:30pm 20.2 - - - - E 13 15 7 8 1024.5 1024.3 0.0
25/05:00pm 20.7 - - - - E 13 17 7 9 1024.8 1024.6 0.0
25/04:30pm 21.1 - - - - ESE 15 17 8 9 1025.0 1024.8 0.0
25/04:00pm 21.3 - - - - ESE 9 13 5 7 1025.1 1024.9 0.0
25/03:30pm 21.4 - - - - SE 9 13 5 7 1025.4 1025.2 0.0
25/03:00pm 21.7 - - - - ESE 7 11 4 6 1025.3 1025.1 0.0
25/02:30pm 21.3 - - - - E 4 11 2 6 1025.3 1025.1 0.0
25/02:00pm 21.3 - - - - E 6 9 3 5 1025.4 1025.2 0.0
25/01:30pm 21.0 - - - - ESE 4 11 2 6 1025.8 1025.6 0.0
25/01:00pm 20.9 - - - - E 11 20 6 11 1026.0 1025.8 0.0
25/12:30pm 19.9 - - - - ENE 7 15 4 8 1026.7 1026.5 0.0
25/12:00pm 19.0 - - - - NE 13 17 7 9 1027.2 1027.0 0.0
25/11:30am 17.9 - - - - NE 15 19 8 10 1027.5 1027.3 0.0
25/11:00am 17.4 - - - - NE 19 24 10 13 1028.2 1027.9 0.0
25/10:30am 16.7 - - - - ENE 19 24 10 13 1028.5 1028.2 0.0
25/10:00am 15.8 - - - - ENE 17 20 9 11 1028.6 1028.3 0.0
25/09:30am 14.9 - - - - ENE 15 19 8 10 1028.5 1028.2 0.0
25/09:00am 13.0 - - - - ENE 9 13 5 7 1028.2 1027.9 0.0
25/08:30am 11.9 - - - - E 7 9 4 5 1027.9 1027.7 0.0
25/08:00am 10.6 - - - - ESE 9 9 5 5 1028.0 1027.8 0.0
25/07:30am 10.5 - - - - ESE 6 9 3 5 1027.9 1027.7 0.0
25/07:00am 10.6 - - - - E 7 7 4 4 1027.6 1027.4 0.0
25/06:30am 11.3 - - - - ENE 4 7 2 4 1027.5 1027.3 0.0
25/06:00am 11.2 - - - - NE 11 13 6 7 1027.1 1026.9 0.0
25/05:30am 11.4 - - - - ENE 11 15 6 8 1027.1 1026.9 0.0
25/05:00am 11.9 - - - - ENE 11 15 6 8 1026.9 1026.7 0.0
25/04:30am 11.8 - - - - E 9 11 5 6 1027.0 1026.8 0.0
25/04:00am 11.8 - - - - E 4 7 2 4 1027.1 1026.9 0.0
25/03:30am 11.9 - - - - E 15 17 8 9 1026.9 1026.7 0.0
25/03:00am 12.4 - - - - ENE 13 17 7 9 1026.7 1026.5 0.0
25/02:30am 12.3 - - - - ENE 7 7 4 4 1027.3 1027.1 0.0
25/02:00am 12.4 - - - - E 9 11 5 6 1027.3 1027.1 0.0
25/01:30am 12.1 - - - - ENE 11 13 6 7 1026.9 1026.7 0.0
25/01:00am 12.6 - - - - E 11 13 6 7 1027.2 1027.0 0.0
25/12:30am 12.7 - - - - E 13 15 7 8 1027.2 1027.0 0.0
25/12:00am 12.7 - - - - ESE 9 13 5 7 1027.6 1027.4 0.0
 
Date/Time
EST
Temp
°C
App
Temp
°C
Dew
Point
Rel
Hum
%
Delta-T
°C
Wind Press
QNH
hPa
Press
MSL
hPa
Rain
since 9 am
mm
Dir
 
Spd
km/h
Gust
km/h
Spd
kts
Gust
kts
24/11:30pm 13.1 - - - - E 13 15 7 8 1027.7 1027.5 0.0
24/11:00pm 13.8 - - - - SE 11 13 6 7 1028.0 1027.8 0.0
24/10:30pm 13.8 - - - - SE 11 13 6 7 1028.0 1027.8 0.0
24/10:00pm 13.9 - - - - SE 9 13 5 7 1028.0 1027.8 0.0
24/09:30pm 14.5 - - - - SE 13 15 7 8 1027.9 1027.7 0.0
24/09:00pm 14.8 - - - - SE 13 15 7 8 1028.0 1027.8 0.0
24/08:30pm 15.4 - - - - SE 13 15 7 8 1027.9 1027.7 0.0
24/08:00pm 15.6 - - - - SE 13 15 7 8 1027.8 1027.6 0.0
24/07:30pm 15.7 - - - - ESE 13 15 7 8 1027.4 1027.2 0.0
24/07:00pm 16.1 - - - - SE 11 13 6 7 1027.5 1027.3 0.0
24/06:30pm 16.1 - - - - ESE 11 13 6 7 1027.0 1026.8 0.0
24/06:00pm 17.0 - - - - E 13 13 7 7 1026.8 1026.6 0.0

Other Formats:

Comma delimited format used in spreadsheet applications
http://www.bom.gov.au/fwo/IDN60801/IDN60801.95485.axf

JavaScript Object Notation format (JSON) in row-major order
http://www.bom.gov.au/fwo/IDN60801/IDN60801.95485.json